createdAt,value
2022-11-21T00:03:53.524Z,73.40
2022-11-21T00:09:00.410Z,76.30
2022-11-21T00:14:07.420Z,71.80
2022-11-21T00:19:14.677Z,69.10
2022-11-21T00:24:21.684Z,68.60
2022-11-21T00:29:29.102Z,69.20
2022-11-21T00:34:36.012Z,91.90
2022-11-21T00:39:42.897Z,73.50
2022-11-21T00:44:49.810Z,79.80
2022-11-21T00:49:56.719Z,64.00
2022-11-21T00:55:03.753Z,77.10
2022-11-21T01:00:14.015Z,78.00
2022-11-21T01:05:21.039Z,78.80
2022-11-21T01:10:27.974Z,85.20
2022-11-21T01:15:34.933Z,76.20
2022-11-21T01:20:42.976Z,81.50
2022-11-21T01:25:49.867Z,90.70
2022-11-21T01:30:56.734Z,79.00
2022-11-21T01:36:13.388Z,75.50
2022-11-21T01:41:22.660Z,85.70
2022-11-21T01:46:30.157Z,79.50
2022-11-21T01:51:44.445Z,78.80
2022-11-21T01:56:58.756Z,82.70
2022-11-21T02:02:08.504Z,113.40
2022-11-21T02:07:18.356Z,104.10
2022-11-21T02:12:30.329Z,95.80
2022-11-21T02:17:37.510Z,82.00
2022-11-21T02:22:51.486Z,93.00
2022-11-21T02:28:03.206Z,89.50
2022-11-21T02:33:10.800Z,81.20
2022-11-21T02:38:22.234Z,93.30
2022-11-21T02:43:33.890Z,136.50
2022-11-21T02:48:41.622Z,114.00
2022-11-21T02:53:51.951Z,101.70
2022-11-21T02:58:58.918Z,75.10
2022-11-21T03:04:06.074Z,88.00
2022-11-21T03:09:13.066Z,78.40
2022-11-21T03:14:20.066Z,102.80
2022-11-21T03:19:27.034Z,102.80
2022-11-21T03:24:33.946Z,87.30
2022-11-21T03:29:40.890Z,93.90
2022-11-21T03:34:47.874Z,119.30
2022-11-21T03:39:54.791Z,120.70
2022-11-21T03:45:01.766Z,110.30
2022-11-21T03:50:10.851Z,92.80
2022-11-21T03:55:17.769Z,92.70
2022-11-21T04:00:24.728Z,98.00
2022-11-21T04:05:31.633Z,88.20
2022-11-21T04:10:38.595Z,90.60
2022-11-21T04:15:46.161Z,98.90
2022-11-21T04:20:59.731Z,118.40
2022-11-21T04:26:06.694Z,107.00
2022-11-21T04:31:13.723Z,100.70
2022-11-21T04:36:20.621Z,102.20
2022-11-21T04:41:27.509Z,94.60
2022-11-21T04:46:34.420Z,98.00
2022-11-21T04:51:41.388Z,110.60
2022-11-21T04:56:48.377Z,96.80
2022-11-21T05:01:55.356Z,101.50
2022-11-21T05:07:02.304Z,135.60
2022-11-21T05:12:28.483Z,123.70
2022-11-21T05:17:35.533Z,104.40
2022-11-21T05:22:42.518Z,113.20
2022-11-21T05:27:49.486Z,119.00
2022-11-21T05:32:56.450Z,119.70
2022-11-21T05:38:04.172Z,113.00
2022-11-21T05:48:37.107Z,105.60
2022-11-21T05:53:44.065Z,158.40
2022-11-21T05:58:51.004Z,170.00
2022-11-21T06:03:58.200Z,162.90
2022-11-21T06:09:06.154Z,142.40
2022-11-21T06:14:13.193Z,121.20
2022-11-21T06:19:20.266Z,113.80
2022-11-21T06:24:27.768Z,121.60
2022-11-21T06:29:35.777Z,99.50
2022-11-21T06:39:49.954Z,122.40
2022-11-21T06:44:56.982Z,188.10
2022-11-21T06:50:03.955Z,153.70
2022-11-21T06:55:12.286Z,135.40
2022-11-21T07:00:21.202Z,120.00
2022-11-21T07:05:28.548Z,127.30
2022-11-21T07:10:35.474Z,117.00
2022-11-21T07:15:42.412Z,118.50
2022-11-21T07:20:50.369Z,116.50
2022-11-21T07:26:00.739Z,119.70
2022-11-21T07:31:13.157Z,134.30
2022-11-21T07:36:20.986Z,105.70
2022-11-21T07:41:29.889Z,99.10
2022-11-21T07:46:36.836Z,96.50
2022-11-21T07:51:43.645Z,102.70
2022-11-21T07:56:50.579Z,141.40
2022-11-21T08:01:57.447Z,117.70
2022-11-21T08:07:05.198Z,116.50
2022-11-21T08:17:18.723Z,109.30
2022-11-21T08:22:25.618Z,96.10
2022-11-21T08:27:32.484Z,141.40
2022-11-21T08:32:39.717Z,124.10
2022-11-21T08:37:46.670Z,134.50
2022-11-21T08:42:59.061Z,117.90
2022-11-21T08:48:10.316Z,113.30
2022-11-21T08:53:17.262Z,113.10
2022-11-21T08:58:24.392Z,110.00
2022-11-21T09:03:33.970Z,103.90
2022-11-21T09:08:40.961Z,140.40
2022-11-21T09:14:08.302Z,132.20
2022-11-21T09:19:15.260Z,120.50
2022-11-21T09:24:22.722Z,115.10
2022-11-21T09:29:29.897Z,69.10
2022-11-21T09:34:37.042Z,104.30
2022-11-21T09:39:44.015Z,122.60
2022-11-21T09:45:10.854Z,124.20
2022-11-21T09:50:30.858Z,133.90
2022-11-21T09:55:52.258Z,125.10
2022-11-21T10:00:59.345Z,112.70
2022-11-21T10:06:15.265Z,115.60
2022-11-21T10:11:34.753Z,118.00
2022-11-21T10:16:49.079Z,100.00
2022-11-21T10:22:09.666Z,120.50
2022-11-21T10:27:20.455Z,135.20
2022-11-21T10:32:31.512Z,122.60
2022-11-21T10:37:43.386Z,114.10
2022-11-21T10:42:56.816Z,102.00
2022-11-21T10:48:08.007Z,112.20
2022-11-21T10:53:37.904Z,105.80
2022-11-21T10:58:48.201Z,125.90
2022-11-21T19:11:53.394Z,186.00
2022-11-21T19:17:00.250Z,168.60
2022-11-21T19:22:07.235Z,214.50
2022-11-21T19:27:14.338Z,193.80
2022-11-21T19:32:21.520Z,200.40
2022-11-21T19:37:29.283Z,188.30
2022-11-21T19:47:41.962Z,205.50
2022-11-21T19:52:48.864Z,212.60
2022-11-21T19:57:55.817Z,207.10
2022-11-21T20:03:02.848Z,208.60
2022-11-21T20:08:17.490Z,227.70
2022-11-21T20:13:25.170Z,211.00
2022-11-21T20:18:32.156Z,206.10
2022-11-21T20:23:39.343Z,191.40
2022-11-21T20:28:47.069Z,186.40
2022-11-21T20:33:56.239Z,197.90
2022-11-21T20:39:06.364Z,215.80
2022-11-21T20:49:45.817Z,171.80
2022-11-21T20:54:53.240Z,195.90
2022-11-21T21:00:00.199Z,172.70
2022-11-21T21:05:08.171Z,155.00
2022-11-21T21:10:15.258Z,162.60
2022-11-21T21:15:22.386Z,164.00
2022-11-21T21:25:35.650Z,155.40
2022-11-21T21:30:43.470Z,149.40
2022-11-21T21:40:58.445Z,152.20
2022-11-21T21:46:10.851Z,190.20
2022-11-21T21:51:19.398Z,174.00
2022-11-21T21:56:28.148Z,158.50
2022-11-21T22:01:35.545Z,145.30
2022-11-21T22:06:42.501Z,166.40
2022-11-21T22:11:49.417Z,154.30
2022-11-21T22:16:56.400Z,217.80
2022-11-21T22:22:03.300Z,162.40
2022-11-21T22:27:10.376Z,177.30
2022-11-21T22:32:19.910Z,187.80
2022-11-21T22:37:27.155Z,180.50
2022-11-21T22:42:34.149Z,173.40
2022-11-21T22:47:47.699Z,152.00
2022-11-21T22:52:55.133Z,175.70
2022-11-21T22:58:02.158Z,181.60
2022-11-21T23:03:09.170Z,189.90
2022-11-21T23:08:16.100Z,175.60
2022-11-21T23:13:23.204Z,160.50
2022-11-21T23:18:30.266Z,182.30
2022-11-21T23:23:37.955Z,180.80
2022-11-21T23:28:45.058Z,166.70
2022-11-21T23:33:52.030Z,167.60
2022-11-21T23:38:59.124Z,160.10
2022-11-21T23:44:06.381Z,165.50
2022-11-21T23:49:14.900Z,159.10
2022-11-21T23:54:21.829Z,161.20
2022-11-21T23:59:28.889Z,163.20
